sensor_id;sensor_type;location;lat;lon;timestamp;P1;durP1;ratioP1;P2;durP2;ratioP2
14272;SDS011;7220;49.450;11.052;2022-09-09T00:06:08;2.55;;;1.98;;
14272;SDS011;7220;49.450;11.052;2022-09-09T00:10:32;4.00;;;2.35;;
14272;SDS011;7220;49.450;11.052;2022-09-09T00:14:54;2.25;;;1.92;;
14272;SDS011;7220;49.450;11.052;2022-09-09T00:23:30;4.13;;;2.53;;
14272;SDS011;7220;49.450;11.052;2022-09-09T00:27:43;2.50;;;2.22;;
14272;SDS011;7220;49.450;11.052;2022-09-09T00:31:46;2.50;;;2.30;;
14272;SDS011;7220;49.450;11.052;2022-09-09T00:35:48;5.60;;;2.38;;
14272;SDS011;7220;49.450;11.052;2022-09-09T00:39:50;2.03;;;1.85;;
14272;SDS011;7220;49.450;11.052;2022-09-09T00:44:00;2.38;;;2.17;;
14272;SDS011;7220;49.450;11.052;2022-09-09T00:48:07;2.17;;;1.98;;
14272;SDS011;7220;49.450;11.052;2022-09-09T01:01:06;3.63;;;1.95;;
14272;SDS011;7220;49.450;11.052;2022-09-09T01:05:12;4.10;;;2.13;;
14272;SDS011;7220;49.450;11.052;2022-09-09T01:14:10;2.50;;;2.03;;
14272;SDS011;7220;49.450;11.052;2022-09-09T01:18:18;2.15;;;1.95;;
14272;SDS011;7220;49.450;11.052;2022-09-09T01:26:23;1.75;;;1.65;;
14272;SDS011;7220;49.450;11.052;2022-09-09T01:30:27;3.00;;;1.80;;
14272;SDS011;7220;49.450;11.052;2022-09-09T01:34:36;2.00;;;1.90;;
14272;SDS011;7220;49.450;11.052;2022-09-09T01:38:40;2.28;;;2.00;;
14272;SDS011;7220;49.450;11.052;2022-09-09T01:42:40;2.60;;;1.90;;
14272;SDS011;7220;49.450;11.052;2022-09-09T01:46:41;2.67;;;1.90;;
14272;SDS011;7220;49.450;11.052;2022-09-09T01:50:41;2.50;;;2.30;;
14272;SDS011;7220;49.450;11.052;2022-09-09T01:54:41;3.90;;;2.03;;
14272;SDS011;7220;49.450;11.052;2022-09-09T02:07:00;2.22;;;2.03;;
14272;SDS011;7220;49.450;11.052;2022-09-09T02:11:03;3.95;;;2.30;;
14272;SDS011;7220;49.450;11.052;2022-09-09T02:15:16;2.53;;;2.20;;
14272;SDS011;7220;49.450;11.052;2022-09-09T02:19:25;2.72;;;2.05;;
14272;SDS011;7220;49.450;11.052;2022-09-09T02:23:30;4.22;;;2.20;;
14272;SDS011;7220;49.450;11.052;2022-09-09T02:27:32;2.45;;;1.92;;
14272;SDS011;7220;49.450;11.052;2022-09-09T02:31:33;2.70;;;1.87;;
14272;SDS011;7220;49.450;11.052;2022-09-09T02:35:35;2.50;;;1.90;;
14272;SDS011;7220;49.450;11.052;2022-09-09T02:39:37;3.25;;;2.00;;
14272;SDS011;7220;49.450;11.052;2022-09-09T02:43:38;1.90;;;1.70;;
14272;SDS011;7220;49.450;11.052;2022-09-09T02:47:39;4.20;;;2.23;;
14272;SDS011;7220;49.450;11.052;2022-09-09T02:51:51;3.63;;;3.03;;
14272;SDS011;7220;49.450;11.052;2022-09-09T02:56:07;4.63;;;3.40;;
14272;SDS011;7220;49.450;11.052;2022-09-09T03:00:13;4.05;;;3.10;;
14272;SDS011;7220;49.450;11.052;2022-09-09T03:04:14;6.40;;;3.88;;
14272;SDS011;7220;49.450;11.052;2022-09-09T03:08:15;7.50;;;4.00;;
14272;SDS011;7220;49.450;11.052;2022-09-09T03:12:15;4.45;;;3.30;;
14272;SDS011;7220;49.450;11.052;2022-09-09T03:16:16;3.97;;;2.80;;
14272;SDS011;7220;49.450;11.052;2022-09-09T03:20:16;5.47;;;2.57;;
14272;SDS011;7220;49.450;11.052;2022-09-09T03:24:17;1.90;;;1.80;;
14272;SDS011;7220;49.450;11.052;2022-09-09T03:28:17;4.65;;;3.13;;
14272;SDS011;7220;49.450;11.052;2022-09-09T03:32:18;4.35;;;2.72;;
14272;SDS011;7220;49.450;11.052;2022-09-09T03:36:18;2.22;;;2.03;;
14272;SDS011;7220;49.450;11.052;2022-09-09T03:40:19;2.40;;;1.90;;
14272;SDS011;7220;49.450;11.052;2022-09-09T03:44:20;2.22;;;1.80;;
14272;SDS011;7220;49.450;11.052;2022-09-09T03:48:20;2.60;;;2.17;;
14272;SDS011;7220;49.450;11.052;2022-09-09T03:52:20;3.67;;;2.85;;
14272;SDS011;7220;49.450;11.052;2022-09-09T03:56:24;4.30;;;2.95;;
14272;SDS011;7220;49.450;11.052;2022-09-09T04:00:25;5.50;;;3.38;;
14272;SDS011;7220;49.450;11.052;2022-09-09T04:04:26;3.78;;;2.75;;
14272;SDS011;7220;49.450;11.052;2022-09-09T04:08:27;4.53;;;2.40;;
14272;SDS011;7220;49.450;11.052;2022-09-09T04:12:27;3.70;;;2.78;;
14272;SDS011;7220;49.450;11.052;2022-09-09T04:16:27;3.77;;;2.53;;
14272;SDS011;7220;49.450;11.052;2022-09-09T04:20:28;2.47;;;2.28;;
14272;SDS011;7220;49.450;11.052;2022-09-09T04:24:29;7.13;;;3.15;;
14272;SDS011;7220;49.450;11.052;2022-09-09T04:28:30;6.97;;;4.50;;
14272;SDS011;7220;49.450;11.052;2022-09-09T04:32:32;4.45;;;4.05;;
14272;SDS011;7220;49.450;11.052;2022-09-09T04:36:33;4.65;;;3.75;;
14272;SDS011;7220;49.450;11.052;2022-09-09T04:40:34;6.13;;;3.90;;
14272;SDS011;7220;49.450;11.052;2022-09-09T04:44:35;6.97;;;4.40;;
14272;SDS011;7220;49.450;11.052;2022-09-09T04:48:36;4.57;;;3.58;;
14272;SDS011;7220;49.450;11.052;2022-09-09T04:52:36;4.40;;;2.60;;
14272;SDS011;7220;49.450;11.052;2022-09-09T04:56:37;3.42;;;2.38;;
14272;SDS011;7220;49.450;11.052;2022-09-09T05:00:37;3.63;;;3.33;;
14272;SDS011;7220;49.450;11.052;2022-09-09T05:04:37;5.47;;;3.30;;
14272;SDS011;7220;49.450;11.052;2022-09-09T05:08:38;4.23;;;3.37;;
14272;SDS011;7220;49.450;11.052;2022-09-09T05:12:42;4.90;;;2.60;;
14272;SDS011;7220;49.450;11.052;2022-09-09T05:16:44;6.17;;;3.20;;
14272;SDS011;7220;49.450;11.052;2022-09-09T05:20:45;4.47;;;3.08;;
14272;SDS011;7220;49.450;11.052;2022-09-09T05:24:45;4.63;;;2.67;;
14272;SDS011;7220;49.450;11.052;2022-09-09T05:28:46;3.67;;;2.75;;
14272;SDS011;7220;49.450;11.052;2022-09-09T05:32:46;3.60;;;2.63;;
14272;SDS011;7220;49.450;11.052;2022-09-09T05:36:48;2.78;;;2.55;;
14272;SDS011;7220;49.450;11.052;2022-09-09T05:40:49;3.60;;;2.60;;
14272;SDS011;7220;49.450;11.052;2022-09-09T05:44:50;7.30;;;3.05;;
14272;SDS011;7220;49.450;11.052;2022-09-09T05:48:51;3.63;;;2.28;;
14272;SDS011;7220;49.450;11.052;2022-09-09T05:52:54;5.38;;;2.65;;
14272;SDS011;7220;49.450;11.052;2022-09-09T05:56:54;4.65;;;2.75;;
14272;SDS011;7220;49.450;11.052;2022-09-09T06:00:59;4.30;;;2.50;;
14272;SDS011;7220;49.450;11.052;2022-09-09T06:05:19;3.30;;;2.25;;
14272;SDS011;7220;49.450;11.052;2022-09-09T06:09:19;4.43;;;2.90;;
14272;SDS011;7220;49.450;11.052;2022-09-09T06:13:20;3.38;;;2.28;;
14272;SDS011;7220;49.450;11.052;2022-09-09T06:17:20;4.10;;;2.53;;
14272;SDS011;7220;49.450;11.052;2022-09-09T06:21:21;3.87;;;2.67;;
14272;SDS011;7220;49.450;11.052;2022-09-09T06:25:23;3.88;;;2.47;;
14272;SDS011;7220;49.450;11.052;2022-09-09T06:29:25;6.72;;;3.03;;
14272;SDS011;7220;49.450;11.052;2022-09-09T06:33:25;4.20;;;2.33;;
14272;SDS011;7220;49.450;11.052;2022-09-09T06:37:26;4.63;;;3.05;;
14272;SDS011;7220;49.450;11.052;2022-09-09T06:41:28;6.28;;;2.80;;
14272;SDS011;7220;49.450;11.052;2022-09-09T06:45:30;4.65;;;2.90;;
14272;SDS011;7220;49.450;11.052;2022-09-09T06:49:31;4.55;;;2.58;;
14272;SDS011;7220;49.450;11.052;2022-09-09T06:53:32;3.60;;;2.57;;
14272;SDS011;7220;49.450;11.052;2022-09-09T06:57:33;5.43;;;2.80;;
14272;SDS011;7220;49.450;11.052;2022-09-09T07:01:34;5.93;;;3.40;;
14272;SDS011;7220;49.450;11.052;2022-09-09T07:05:36;6.88;;;3.00;;
14272;SDS011;7220;49.450;11.052;2022-09-09T07:09:37;3.58;;;2.30;;
14272;SDS011;7220;49.450;11.052;2022-09-09T07:13:37;6.70;;;2.55;;
14272;SDS011;7220;49.450;11.052;2022-09-09T07:17:37;3.70;;;2.40;;
14272;SDS011;7220;49.450;11.052;2022-09-09T07:21:38;3.20;;;2.42;;
14272;SDS011;7220;49.450;11.052;2022-09-09T07:25:44;2.53;;;1.95;;
14272;SDS011;7220;49.450;11.052;2022-09-09T07:29:45;4.32;;;2.13;;
14272;SDS011;7220;49.450;11.052;2022-09-09T07:33:45;3.90;;;2.00;;
14272;SDS011;7220;49.450;11.052;2022-09-09T07:37:46;3.40;;;2.20;;
14272;SDS011;7220;49.450;11.052;2022-09-09T07:41:47;4.70;;;2.70;;
14272;SDS011;7220;49.450;11.052;2022-09-09T07:45:56;4.05;;;2.10;;
14272;SDS011;7220;49.450;11.052;2022-09-09T07:49:57;7.93;;;3.00;;
14272;SDS011;7220;49.450;11.052;2022-09-09T07:54:00;2.72;;;2.00;;
14272;SDS011;7220;49.450;11.052;2022-09-09T07:58:02;3.80;;;2.15;;
14272;SDS011;7220;49.450;11.052;2022-09-09T08:02:02;2.80;;;2.40;;
14272;SDS011;7220;49.450;11.052;2022-09-09T08:06:04;4.55;;;3.00;;
14272;SDS011;7220;49.450;11.052;2022-09-09T08:10:07;4.50;;;2.35;;
14272;SDS011;7220;49.450;11.052;2022-09-09T08:14:09;6.03;;;2.10;;
14272;SDS011;7220;49.450;11.052;2022-09-09T08:18:11;6.40;;;3.05;;
14272;SDS011;7220;49.450;11.052;2022-09-09T08:22:11;4.40;;;2.30;;
14272;SDS011;7220;49.450;11.052;2022-09-09T08:26:13;4.80;;;2.10;;
14272;SDS011;7220;49.450;11.052;2022-09-09T08:30:19;3.85;;;1.92;;
14272;SDS011;7220;49.450;11.052;2022-09-09T08:34:20;3.47;;;1.85;;
14272;SDS011;7220;49.450;11.052;2022-09-09T08:38:21;3.33;;;1.60;;
14272;SDS011;7220;49.450;11.052;2022-09-09T08:42:32;4.68;;;1.98;;
14272;SDS011;7220;49.450;11.052;2022-09-09T08:51:27;2.58;;;1.60;;
14272;SDS011;7220;49.450;11.052;2022-09-09T08:59:51;2.17;;;1.40;;
14272;SDS011;7220;49.450;11.052;2022-09-09T09:08:27;1.83;;;1.60;;
14272;SDS011;7220;49.450;11.052;2022-09-09T09:12:53;4.43;;;1.73;;
14272;SDS011;7220;49.450;11.052;2022-09-09T09:29:18;1.88;;;1.20;;
14272;SDS011;7220;49.450;11.052;2022-09-09T09:37:33;3.67;;;1.40;;
14272;SDS011;7220;49.450;11.052;2022-09-09T09:41:41;2.00;;;1.30;;
14272;SDS011;7220;49.450;11.052;2022-09-09T09:45:43;2.00;;;1.25;;
14272;SDS011;7220;49.450;11.052;2022-09-09T09:49:51;2.25;;;1.30;;
14272;SDS011;7220;49.450;11.052;2022-09-09T09:54:02;2.00;;;1.20;;
14272;SDS011;7220;49.450;11.052;2022-09-09T09:58:13;4.00;;;1.30;;
14272;SDS011;7220;49.450;11.052;2022-09-09T10:02:17;1.60;;;0.80;;
14272;SDS011;7220;49.450;11.052;2022-09-09T10:06:35;1.17;;;1.00;;
14272;SDS011;7220;49.450;11.052;2022-09-09T10:22:51;1.92;;;1.35;;
14272;SDS011;7220;49.450;11.052;2022-09-09T10:27:02;3.42;;;1.30;;
14272;SDS011;7220;49.450;11.052;2022-09-09T10:35:33;2.50;;;1.30;;
14272;SDS011;7220;49.450;11.052;2022-09-09T10:39:42;1.60;;;1.50;;
14272;SDS011;7220;49.450;11.052;2022-09-09T10:48:27;1.63;;;1.10;;
14272;SDS011;7220;49.450;11.052;2022-09-09T10:57:03;1.25;;;0.93;;
14272;SDS011;7220;49.450;11.052;2022-09-09T11:05:26;1.85;;;1.20;;
14272;SDS011;7220;49.450;11.052;2022-09-09T11:09:31;2.00;;;1.08;;
14272;SDS011;7220;49.450;11.052;2022-09-09T11:13:42;1.98;;;1.10;;
14272;SDS011;7220;49.450;11.052;2022-09-09T11:17:56;3.42;;;1.20;;
14272;SDS011;7220;49.450;11.052;2022-09-09T11:21:58;2.88;;;1.10;;
14272;SDS011;7220;49.450;11.052;2022-09-09T11:26:01;3.92;;;1.20;;
14272;SDS011;7220;49.450;11.052;2022-09-09T11:38:53;2.35;;;1.23;;
14272;SDS011;7220;49.450;11.052;2022-09-09T11:43:03;3.33;;;1.35;;
14272;SDS011;7220;49.450;11.052;2022-09-09T11:47:19;3.38;;;1.35;;
14272;SDS011;7220;49.450;11.052;2022-09-09T11:51:31;1.60;;;1.00;;
14272;SDS011;7220;49.450;11.052;2022-09-09T11:55:34;3.92;;;1.25;;
14272;SDS011;7220;49.450;11.052;2022-09-09T11:59:36;2.05;;;1.17;;
14272;SDS011;7220;49.450;11.052;2022-09-09T12:03:55;3.60;;;1.10;;
14272;SDS011;7220;49.450;11.052;2022-09-09T12:08:09;2.83;;;1.20;;
14272;SDS011;7220;49.450;11.052;2022-09-09T12:16:31;2.53;;;1.23;;
14272;SDS011;7220;49.450;11.052;2022-09-09T12:20:36;2.50;;;1.00;;
14272;SDS011;7220;49.450;11.052;2022-09-09T12:24:39;1.42;;;1.10;;
14272;SDS011;7220;49.450;11.052;2022-09-09T12:33:08;2.50;;;1.08;;
14272;SDS011;7220;49.450;11.052;2022-09-09T12:37:17;1.38;;;0.82;;
14272;SDS011;7220;49.450;11.052;2022-09-09T12:41:27;1.83;;;0.95;;
14272;SDS011;7220;49.450;11.052;2022-09-09T12:45:30;1.17;;;0.93;;
14272;SDS011;7220;49.450;11.052;2022-09-09T12:49:36;2.58;;;1.05;;
14272;SDS011;7220;49.450;11.052;2022-09-09T12:53:39;2.60;;;1.15;;
14272;SDS011;7220;49.450;11.052;2022-09-09T12:57:39;1.65;;;0.95;;
14272;SDS011;7220;49.450;11.052;2022-09-09T13:01:40;1.77;;;1.00;;
14272;SDS011;7220;49.450;11.052;2022-09-09T13:05:40;2.43;;;0.97;;
14272;SDS011;7220;49.450;11.052;2022-09-09T13:09:40;4.72;;;1.33;;
14272;SDS011;7220;49.450;11.052;2022-09-09T13:13:41;2.05;;;1.00;;
14272;SDS011;7220;49.450;11.052;2022-09-09T13:17:48;3.47;;;1.40;;
14272;SDS011;7220;49.450;11.052;2022-09-09T13:21:50;2.70;;;1.27;;
14272;SDS011;7220;49.450;11.052;2022-09-09T13:25:59;2.75;;;1.10;;
14272;SDS011;7220;49.450;11.052;2022-09-09T13:30:01;2.42;;;1.20;;
14272;SDS011;7220;49.450;11.052;2022-09-09T13:34:25;1.58;;;1.10;;
14272;SDS011;7220;49.450;11.052;2022-09-09T13:38:28;3.22;;;1.17;;
14272;SDS011;7220;49.450;11.052;2022-09-09T13:42:31;1.35;;;1.00;;
14272;SDS011;7220;49.450;11.052;2022-09-09T13:46:38;1.23;;;0.82;;
14272;SDS011;7220;49.450;11.052;2022-09-09T13:50:40;1.15;;;0.95;;
14272;SDS011;7220;49.450;11.052;2022-09-09T13:54:41;1.92;;;0.98;;
14272;SDS011;7220;49.450;11.052;2022-09-09T13:58:42;2.33;;;1.40;;
14272;SDS011;7220;49.450;11.052;2022-09-09T14:02:42;2.10;;;1.23;;
14272;SDS011;7220;49.450;11.052;2022-09-09T14:06:43;1.60;;;1.20;;
14272;SDS011;7220;49.450;11.052;2022-09-09T14:10:44;2.90;;;1.25;;
14272;SDS011;7220;49.450;11.052;2022-09-09T14:14:45;2.53;;;1.60;;
14272;SDS011;7220;49.450;11.052;2022-09-09T14:18:46;3.22;;;1.48;;
14272;SDS011;7220;49.450;11.052;2022-09-09T14:22:46;2.80;;;1.40;;
14272;SDS011;7220;49.450;11.052;2022-09-09T14:26:46;1.92;;;1.13;;
14272;SDS011;7220;49.450;11.052;2022-09-09T14:30:47;1.50;;;1.02;;
14272;SDS011;7220;49.450;11.052;2022-09-09T14:34:48;1.63;;;1.30;;
14272;SDS011;7220;49.450;11.052;2022-09-09T14:38:51;1.73;;;1.38;;
14272;SDS011;7220;49.450;11.052;2022-09-09T14:42:52;2.90;;;1.25;;
14272;SDS011;7220;49.450;11.052;2022-09-09T14:46:53;3.42;;;1.77;;
14272;SDS011;7220;49.450;11.052;2022-09-09T14:50:54;5.65;;;1.73;;
14272;SDS011;7220;49.450;11.052;2022-09-09T14:54:55;3.65;;;1.10;;
14272;SDS011;7220;49.450;11.052;2022-09-09T14:58:55;2.30;;;1.43;;
14272;SDS011;7220;49.450;11.052;2022-09-09T15:02:57;1.88;;;1.05;;
14272;SDS011;7220;49.450;11.052;2022-09-09T15:06:58;2.57;;;1.30;;
14272;SDS011;7220;49.450;11.052;2022-09-09T15:10:59;1.95;;;0.90;;
14272;SDS011;7220;49.450;11.052;2022-09-09T15:15:01;2.15;;;1.00;;
14272;SDS011;7220;49.450;11.052;2022-09-09T15:19:02;2.20;;;1.10;;
14272;SDS011;7220;49.450;11.052;2022-09-09T15:23:03;8.45;;;1.55;;
14272;SDS011;7220;49.450;11.052;2022-09-09T15:27:03;3.15;;;1.38;;
14272;SDS011;7220;49.450;11.052;2022-09-09T15:31:08;3.63;;;1.47;;
14272;SDS011;7220;49.450;11.052;2022-09-09T15:35:11;2.85;;;1.23;;
14272;SDS011;7220;49.450;11.052;2022-09-09T15:39:12;1.80;;;1.37;;
14272;SDS011;7220;49.450;11.052;2022-09-09T15:43:15;2.00;;;1.30;;
14272;SDS011;7220;49.450;11.052;2022-09-09T15:47:15;2.47;;;1.20;;
14272;SDS011;7220;49.450;11.052;2022-09-09T15:51:16;1.17;;;0.90;;
14272;SDS011;7220;49.450;11.052;2022-09-09T15:55:17;2.33;;;0.93;;
14272;SDS011;7220;49.450;11.052;2022-09-09T15:59:17;1.70;;;1.20;;
14272;SDS011;7220;49.450;11.052;2022-09-09T16:03:18;1.33;;;0.90;;
14272;SDS011;7220;49.450;11.052;2022-09-09T16:07:18;1.98;;;0.70;;
14272;SDS011;7220;49.450;11.052;2022-09-09T16:11:24;3.13;;;0.77;;
14272;SDS011;7220;49.450;11.052;2022-09-09T16:15:26;1.15;;;1.05;;
14272;SDS011;7220;49.450;11.052;2022-09-09T16:19:26;1.10;;;0.70;;
14272;SDS011;7220;49.450;11.052;2022-09-09T16:23:27;1.60;;;0.80;;
14272;SDS011;7220;49.450;11.052;2022-09-09T16:27:27;0.68;;;0.55;;
14272;SDS011;7220;49.450;11.052;2022-09-09T16:31:28;1.10;;;1.00;;
14272;SDS011;7220;49.450;11.052;2022-09-09T16:35:30;1.40;;;1.00;;
14272;SDS011;7220;49.450;11.052;2022-09-09T16:39:31;2.00;;;0.87;;
14272;SDS011;7220;49.450;11.052;2022-09-09T16:43:34;1.90;;;0.67;;
14272;SDS011;7220;49.450;11.052;2022-09-09T16:47:36;3.50;;;0.98;;
14272;SDS011;7220;49.450;11.052;2022-09-09T16:51:43;1.30;;;1.20;;
14272;SDS011;7220;49.450;11.052;2022-09-09T16:55:48;2.65;;;1.00;;
14272;SDS011;7220;49.450;11.052;2022-09-09T16:59:48;3.00;;;1.10;;
14272;SDS011;7220;49.450;11.052;2022-09-09T17:03:59;1.02;;;1.00;;
14272;SDS011;7220;49.450;11.052;2022-09-09T17:08:01;1.17;;;0.73;;
14272;SDS011;7220;49.450;11.052;2022-09-09T17:12:01;1.15;;;0.60;;
14272;SDS011;7220;49.450;11.052;2022-09-09T17:16:03;0.98;;;0.85;;
14272;SDS011;7220;49.450;11.052;2022-09-09T17:20:04;2.33;;;0.90;;
14272;SDS011;7220;49.450;11.052;2022-09-09T17:24:08;0.98;;;0.80;;
14272;SDS011;7220;49.450;11.052;2022-09-09T17:28:10;1.48;;;1.10;;
14272;SDS011;7220;49.450;11.052;2022-09-09T17:32:10;1.23;;;1.10;;
14272;SDS011;7220;49.450;11.052;2022-09-09T17:36:12;1.30;;;1.00;;
14272;SDS011;7220;49.450;11.052;2022-09-09T17:40:21;2.25;;;1.60;;
14272;SDS011;7220;49.450;11.052;2022-09-09T17:44:22;1.52;;;1.42;;
14272;SDS011;7220;49.450;11.052;2022-09-09T17:48:22;2.28;;;1.10;;
14272;SDS011;7220;49.450;11.052;2022-09-09T17:52:23;1.27;;;1.07;;
14272;SDS011;7220;49.450;11.052;2022-09-09T17:56:24;1.10;;;1.00;;
14272;SDS011;7220;49.450;11.052;2022-09-09T18:00:26;3.03;;;0.93;;
14272;SDS011;7220;49.450;11.052;2022-09-09T18:04:27;2.80;;;1.73;;
14272;SDS011;7220;49.450;11.052;2022-09-09T18:08:27;1.38;;;1.20;;
14272;SDS011;7220;49.450;11.052;2022-09-09T18:12:28;1.30;;;1.20;;
14272;SDS011;7220;49.450;11.052;2022-09-09T18:16:30;3.08;;;1.40;;
14272;SDS011;7220;49.450;11.052;2022-09-09T18:20:35;3.10;;;1.30;;
14272;SDS011;7220;49.450;11.052;2022-09-09T18:24:35;1.40;;;1.13;;
14272;SDS011;7220;49.450;11.052;2022-09-09T18:28:36;1.87;;;1.30;;
14272;SDS011;7220;49.450;11.052;2022-09-09T18:32:40;2.65;;;1.42;;
14272;SDS011;7220;49.450;11.052;2022-09-09T18:36:41;5.20;;;1.63;;
14272;SDS011;7220;49.450;11.052;2022-09-09T18:40:43;1.10;;;1.00;;
14272;SDS011;7220;49.450;11.052;2022-09-09T18:44:44;1.97;;;1.00;;
14272;SDS011;7220;49.450;11.052;2022-09-09T18:48:44;2.50;;;1.17;;
14272;SDS011;7220;49.450;11.052;2022-09-09T18:52:46;2.40;;;1.10;;
14272;SDS011;7220;49.450;11.052;2022-09-09T18:56:47;1.27;;;1.02;;
14272;SDS011;7220;49.450;11.052;2022-09-09T19:00:47;2.35;;;1.30;;
14272;SDS011;7220;49.450;11.052;2022-09-09T19:04:48;1.10;;;1.00;;
14272;SDS011;7220;49.450;11.052;2022-09-09T19:08:49;2.53;;;1.40;;
14272;SDS011;7220;49.450;11.052;2022-09-09T19:12:50;4.10;;;2.13;;
14272;SDS011;7220;49.450;11.052;2022-09-09T19:16:50;2.93;;;2.73;;
14272;SDS011;7220;49.450;11.052;2022-09-09T19:20:50;3.03;;;2.42;;
14272;SDS011;7220;49.450;11.052;2022-09-09T19:24:51;3.30;;;2.00;;
14272;SDS011;7220;49.450;11.052;2022-09-09T19:28:51;3.92;;;2.20;;
14272;SDS011;7220;49.450;11.052;2022-09-09T19:32:51;3.78;;;2.00;;
14272;SDS011;7220;49.450;11.052;2022-09-09T19:36:52;2.97;;;1.92;;
14272;SDS011;7220;49.450;11.052;2022-09-09T19:40:52;4.03;;;2.30;;
14272;SDS011;7220;49.450;11.052;2022-09-09T19:44:52;2.40;;;1.70;;
14272;SDS011;7220;49.450;11.052;2022-09-09T19:48:55;2.67;;;1.85;;
14272;SDS011;7220;49.450;11.052;2022-09-09T19:52:56;6.95;;;3.03;;
14272;SDS011;7220;49.450;11.052;2022-09-09T19:56:57;4.10;;;2.30;;
14272;SDS011;7220;49.450;11.052;2022-09-09T20:05:30;3.15;;;2.10;;
14272;SDS011;7220;49.450;11.052;2022-09-09T20:09:30;2.63;;;2.20;;
14272;SDS011;7220;49.450;11.052;2022-09-09T20:13:32;5.75;;;2.58;;
14272;SDS011;7220;49.450;11.052;2022-09-09T20:17:34;4.25;;;2.50;;
14272;SDS011;7220;49.450;11.052;2022-09-09T20:21:35;6.80;;;2.78;;
14272;SDS011;7220;49.450;11.052;2022-09-09T20:25:42;8.75;;;4.85;;
14272;SDS011;7220;49.450;11.052;2022-09-09T20:29:44;6.45;;;4.90;;
14272;SDS011;7220;49.450;11.052;2022-09-09T20:33:46;5.18;;;3.55;;
14272;SDS011;7220;49.450;11.052;2022-09-09T20:37:47;4.30;;;3.00;;
14272;SDS011;7220;49.450;11.052;2022-09-09T20:41:47;5.00;;;2.90;;
14272;SDS011;7220;49.450;11.052;2022-09-09T20:45:48;5.03;;;2.80;;
14272;SDS011;7220;49.450;11.052;2022-09-09T20:49:49;5.13;;;2.97;;
14272;SDS011;7220;49.450;11.052;2022-09-09T20:53:56;6.03;;;3.87;;
14272;SDS011;7220;49.450;11.052;2022-09-09T20:57:57;4.53;;;3.03;;
14272;SDS011;7220;49.450;11.052;2022-09-09T21:01:59;4.47;;;3.30;;
14272;SDS011;7220;49.450;11.052;2022-09-09T21:06:00;3.33;;;2.90;;
14272;SDS011;7220;49.450;11.052;2022-09-09T21:10:00;5.47;;;2.50;;
14272;SDS011;7220;49.450;11.052;2022-09-09T21:14:01;7.68;;;4.13;;
14272;SDS011;7220;49.450;11.052;2022-09-09T21:18:02;5.75;;;3.53;;
14272;SDS011;7220;49.450;11.052;2022-09-09T21:22:02;4.25;;;2.88;;
14272;SDS011;7220;49.450;11.052;2022-09-09T21:26:03;4.68;;;2.50;;
14272;SDS011;7220;49.450;11.052;2022-09-09T21:30:04;3.28;;;2.35;;
14272;SDS011;7220;49.450;11.052;2022-09-09T21:34:05;3.17;;;2.13;;
14272;SDS011;7220;49.450;11.052;2022-09-09T21:38:06;2.25;;;1.92;;
14272;SDS011;7220;49.450;11.052;2022-09-09T21:42:09;5.30;;;2.00;;
14272;SDS011;7220;49.450;11.052;2022-09-09T21:46:14;3.57;;;2.00;;
14272;SDS011;7220;49.450;11.052;2022-09-09T21:50:16;2.05;;;1.58;;
14272;SDS011;7220;49.450;11.052;2022-09-09T21:54:19;2.10;;;1.42;;
14272;SDS011;7220;49.450;11.052;2022-09-09T21:58:19;1.90;;;1.40;;
14272;SDS011;7220;49.450;11.052;2022-09-09T22:02:19;3.57;;;1.70;;
14272;SDS011;7220;49.450;11.052;2022-09-09T22:06:20;4.80;;;2.10;;
14272;SDS011;7220;49.450;11.052;2022-09-09T22:10:21;5.57;;;2.70;;
14272;SDS011;7220;49.450;11.052;2022-09-09T22:14:22;8.20;;;2.53;;
14272;SDS011;7220;49.450;11.052;2022-09-09T22:18:22;2.92;;;2.13;;
14272;SDS011;7220;49.450;11.052;2022-09-09T22:22:23;2.42;;;1.88;;
14272;SDS011;7220;49.450;11.052;2022-09-09T22:26:23;2.00;;;1.48;;
14272;SDS011;7220;49.450;11.052;2022-09-09T22:30:25;1.52;;;1.42;;
14272;SDS011;7220;49.450;11.052;2022-09-09T22:34:25;2.33;;;1.50;;
14272;SDS011;7220;49.450;11.052;2022-09-09T22:38:27;3.40;;;1.75;;
14272;SDS011;7220;49.450;11.052;2022-09-09T22:42:28;1.95;;;1.40;;
14272;SDS011;7220;49.450;11.052;2022-09-09T22:46:29;1.85;;;1.50;;
14272;SDS011;7220;49.450;11.052;2022-09-09T22:50:35;3.08;;;1.95;;
14272;SDS011;7220;49.450;11.052;2022-09-09T22:54:39;2.20;;;1.67;;
14272;SDS011;7220;49.450;11.052;2022-09-09T22:58:40;1.50;;;1.38;;
14272;SDS011;7220;49.450;11.052;2022-09-09T23:02:40;2.63;;;1.33;;
14272;SDS011;7220;49.450;11.052;2022-09-09T23:06:40;2.35;;;1.60;;
14272;SDS011;7220;49.450;11.052;2022-09-09T23:10:42;2.95;;;1.83;;
14272;SDS011;7220;49.450;11.052;2022-09-09T23:14:43;3.65;;;1.70;;
14272;SDS011;7220;49.450;11.052;2022-09-09T23:18:43;1.60;;;1.50;;
14272;SDS011;7220;49.450;11.052;2022-09-09T23:22:44;2.33;;;1.38;;
14272;SDS011;7220;49.450;11.052;2022-09-09T23:26:44;3.72;;;1.90;;
14272;SDS011;7220;49.450;11.052;2022-09-09T23:30:46;2.08;;;1.58;;
14272;SDS011;7220;49.450;11.052;2022-09-09T23:34:46;3.65;;;1.73;;
14272;SDS011;7220;49.450;11.052;2022-09-09T23:38:47;1.88;;;1.23;;
14272;SDS011;7220;49.450;11.052;2022-09-09T23:42:48;2.47;;;1.63;;
14272;SDS011;7220;49.450;11.052;2022-09-09T23:46:48;1.63;;;1.47;;
14272;SDS011;7220;49.450;11.052;2022-09-09T23:50:48;1.83;;;1.40;;
14272;SDS011;7220;49.450;11.052;2022-09-09T23:54:51;1.70;;;1.60;;
14272;SDS011;7220;49.450;11.052;2022-09-09T23:58:51;4.50;;;1.63;;
